createdAt,value
2017-11-15T00:01:00.952Z,3.67
2017-11-15T00:03:28.715Z,3.72
2017-11-15T00:05:56.274Z,3.57
2017-11-15T00:08:23.868Z,3.61
2017-11-15T00:10:51.780Z,3.77
2017-11-15T00:13:19.291Z,3.76
2017-11-15T00:15:46.860Z,3.39
2017-11-15T00:18:14.582Z,3.45
2017-11-15T00:20:42.099Z,3.57
2017-11-15T00:23:09.616Z,3.54
2017-11-15T00:25:37.361Z,3.68
2017-11-15T00:28:04.922Z,3.77
2017-11-15T00:30:32.480Z,3.58
2017-11-15T00:33:00.035Z,3.71
2017-11-15T00:35:27.547Z,3.57
2017-11-15T00:37:55.058Z,3.43
2017-11-15T00:40:22.616Z,3.25
2017-11-15T00:42:50.127Z,3.35
2017-11-15T00:45:17.673Z,3.57
2017-11-15T00:47:45.335Z,3.38
2017-11-15T00:50:12.855Z,3.08
2017-11-15T00:52:40.411Z,3.32
2017-11-15T00:55:08.376Z,3.47
2017-11-15T00:57:35.938Z,3.48
2017-11-15T01:00:03.496Z,3.16
2017-11-15T01:02:31.262Z,3.21
2017-11-15T01:04:58.820Z,3.62
2017-11-15T01:07:26.380Z,3.55
2017-11-15T01:09:54.142Z,3.63
2017-11-15T01:12:21.658Z,3.48
2017-11-15T01:14:49.179Z,3.51
2017-11-15T01:17:16.731Z,3.45
2017-11-15T01:19:44.276Z,3.54
2017-11-15T01:22:11.835Z,3.61
2017-11-15T01:24:39.575Z,3.71
2017-11-15T01:27:07.107Z,3.58
2017-11-15T01:29:34.619Z,3.69
2017-11-15T01:32:02.388Z,3.62
2017-11-15T01:34:30.244Z,3.43
2017-11-15T01:36:57.804Z,3.62
2017-11-15T01:39:25.468Z,3.40
2017-11-15T01:41:53.025Z,2.96
2017-11-15T01:44:20.584Z,3.04
2017-11-15T01:46:48.165Z,3.57
2017-11-15T01:49:15.688Z,3.70
2017-11-15T01:51:43.203Z,3.15
2017-11-15T01:54:10.847Z,3.43
2017-11-15T01:56:39.331Z,3.55
2017-11-15T01:59:06.843Z,3.40
2017-11-15T02:01:38.502Z,3.58
2017-11-15T02:04:06.019Z,3.71
2017-11-15T02:06:33.531Z,3.59
2017-11-15T02:09:01.396Z,3.47
2017-11-15T02:11:28.906Z,3.62
2017-11-15T02:13:56.435Z,3.58
2017-11-15T02:16:24.278Z,3.69
2017-11-15T02:18:51.787Z,3.74
2017-11-15T02:21:19.307Z,3.69
2017-11-15T02:23:47.066Z,3.59
2017-11-15T02:26:14.591Z,3.48
2017-11-15T02:28:42.107Z,3.45
2017-11-15T02:31:09.838Z,3.51
2017-11-15T02:33:37.396Z,3.39
2017-11-15T02:36:04.907Z,3.31
2017-11-15T02:38:32.760Z,3.36
2017-11-15T02:41:00.291Z,3.49
2017-11-15T02:43:27.807Z,3.48
2017-11-15T02:45:55.499Z,3.46
2017-11-15T02:48:23.010Z,3.43
2017-11-15T02:50:50.534Z,3.18
2017-11-15T02:53:18.261Z,3.43
2017-11-15T02:55:45.776Z,3.43
2017-11-15T02:58:13.304Z,3.33
2017-11-15T03:00:40.959Z,3.23
2017-11-15T03:03:08.532Z,3.24
2017-11-15T03:05:36.074Z,3.29
2017-11-15T03:08:03.813Z,3.28
2017-11-15T03:10:31.323Z,3.11
2017-11-15T03:12:58.847Z,2.93
2017-11-15T03:15:26.412Z,2.95
2017-11-15T03:17:53.927Z,2.57
2017-11-15T03:20:21.443Z,2.87
2017-11-15T03:22:49.170Z,2.95
2017-11-15T03:25:16.686Z,3.00
2017-11-15T03:27:44.204Z,2.94
2017-11-15T03:30:11.846Z,3.05
2017-11-15T03:32:39.362Z,2.89
2017-11-15T03:35:06.907Z,2.92
2017-11-15T03:37:34.603Z,2.72
2017-11-15T03:40:02.119Z,2.75
2017-11-15T03:42:29.635Z,2.74
2017-11-15T03:44:57.449Z,2.72
2017-11-15T03:47:25.010Z,2.66
2017-11-15T03:49:52.523Z,2.65
2017-11-15T03:52:20.108Z,2.35
2017-11-15T03:54:47.619Z,2.32
2017-11-15T03:57:15.136Z,2.04
2017-11-15T03:59:42.886Z,2.03
2017-11-15T04:02:10.398Z,2.25
2017-11-15T04:04:37.910Z,2.19
2017-11-15T04:07:05.742Z,2.04
2017-11-15T04:09:33.255Z,2.08
2017-11-15T04:12:00.767Z,2.10
2017-11-15T04:14:28.342Z,1.66
2017-11-15T04:16:55.856Z,1.75
2017-11-15T04:19:23.377Z,1.97
2017-11-15T04:21:50.927Z,2.15
2017-11-15T04:24:18.478Z,1.98
2017-11-15T04:26:46.040Z,2.18
2017-11-15T04:29:13.653Z,2.13
2017-11-15T04:31:41.178Z,2.15
2017-11-15T04:34:08.704Z,2.03
2017-11-15T04:36:36.452Z,2.00
2017-11-15T04:39:03.967Z,2.04
2017-11-15T04:41:31.492Z,2.01
2017-11-15T04:43:59.068Z,2.26
2017-11-15T04:46:26.625Z,2.42
2017-11-15T04:48:54.169Z,2.37
2017-11-15T04:51:21.935Z,2.26
2017-11-15T04:53:49.492Z,2.59
2017-11-15T04:56:17.066Z,2.43
2017-11-15T04:58:44.790Z,2.46
2017-11-15T05:01:12.313Z,2.58
2017-11-15T05:03:39.884Z,2.50
2017-11-15T05:06:07.619Z,2.25
2017-11-15T05:08:35.130Z,2.44
2017-11-15T05:11:02.650Z,2.05
2017-11-15T05:13:30.212Z,2.10
2017-11-15T05:15:57.726Z,1.93
2017-11-15T05:18:25.239Z,2.11
2017-11-15T05:20:52.931Z,1.95
2017-11-15T05:23:20.455Z,2.08
2017-11-15T05:25:47.996Z,2.15
2017-11-15T05:28:15.565Z,2.27
2017-11-15T05:30:43.086Z,2.30
2017-11-15T05:33:11.507Z,2.44
2017-11-15T05:35:39.298Z,2.59
2017-11-15T05:38:06.811Z,2.63
2017-11-15T05:40:34.327Z,2.58
2017-11-15T05:43:01.917Z,2.77
2017-11-15T05:45:29.446Z,2.72
2017-11-15T05:47:56.976Z,2.40
2017-11-15T05:50:24.632Z,2.53
2017-11-15T05:52:52.148Z,2.53
2017-11-15T05:55:19.698Z,2.38
2017-11-15T05:57:47.674Z,2.28
2017-11-15T06:00:15.227Z,2.32
2017-11-15T06:02:42.786Z,2.04
2017-11-15T06:05:10.548Z,2.10
2017-11-15T06:07:38.110Z,2.06
2017-11-15T06:10:05.710Z,2.15
2017-11-15T06:12:33.427Z,2.07
2017-11-15T06:15:01.017Z,2.08
2017-11-15T06:17:28.631Z,1.97
2017-11-15T06:19:56.327Z,2.15
2017-11-15T06:22:23.982Z,2.19
2017-11-15T06:24:51.409Z,2.10
2017-11-15T06:27:19.109Z,1.98
2017-11-15T06:29:46.603Z,1.81
2017-11-15T06:32:14.125Z,1.51
2017-11-15T06:34:41.844Z,1.61
2017-11-15T06:37:09.361Z,1.54
2017-11-15T06:39:36.878Z,1.76
2017-11-15T06:42:04.753Z,1.78
2017-11-15T06:44:32.623Z,1.80
2017-11-15T06:47:00.178Z,1.68
2017-11-15T06:49:27.783Z,1.63
2017-11-15T06:51:55.295Z,2.20
2017-11-15T06:54:22.806Z,2.36
2017-11-15T06:56:50.366Z,2.20
2017-11-15T06:59:17.891Z,2.16
2017-11-15T07:01:45.415Z,2.21
2017-11-15T07:04:13.031Z,2.37
2017-11-15T07:06:40.542Z,2.57
2017-11-15T07:09:08.125Z,2.85
2017-11-15T07:11:35.686Z,2.99
2017-11-15T07:14:03.226Z,3.08
2017-11-15T07:16:30.795Z,3.06
2017-11-15T07:18:58.367Z,3.20
2017-11-15T07:21:25.883Z,3.31
2017-11-15T07:23:53.519Z,3.19
2017-11-15T07:26:21.148Z,3.29
2017-11-15T07:28:48.695Z,3.51
2017-11-15T07:31:16.244Z,3.54
2017-11-15T07:33:43.791Z,3.65
2017-11-15T07:36:11.361Z,3.66
2017-11-15T07:38:38.919Z,3.73
2017-11-15T07:41:06.488Z,3.65
2017-11-15T07:43:34.003Z,3.81
2017-11-15T07:46:01.522Z,3.91
2017-11-15T07:48:29.072Z,3.91
2017-11-15T07:50:56.596Z,3.77
2017-11-15T07:53:24.115Z,3.85
2017-11-15T07:55:51.731Z,4.03
2017-11-15T07:58:19.297Z,4.04
2017-11-15T08:00:46.857Z,4.20
2017-11-15T08:03:14.407Z,4.47
2017-11-15T08:05:41.967Z,4.69
2017-11-15T08:08:09.527Z,4.93
2017-11-15T08:10:37.291Z,4.88
2017-11-15T08:13:04.849Z,4.94
2017-11-15T08:15:32.407Z,4.97
2017-11-15T08:18:00.099Z,5.02
2017-11-15T08:20:27.637Z,5.00
2017-11-15T08:22:55.187Z,5.11
2017-11-15T08:25:22.952Z,5.16
2017-11-15T08:27:50.512Z,5.39
2017-11-15T08:30:18.060Z,5.26
2017-11-15T08:32:45.833Z,5.10
2017-11-15T08:35:13.351Z,5.47
2017-11-15T08:37:40.872Z,5.54
2017-11-15T08:40:08.828Z,5.44
2017-11-15T08:42:36.378Z,5.48
2017-11-15T08:45:03.903Z,5.77
2017-11-15T08:47:31.885Z,5.89
2017-11-15T08:49:59.407Z,6.08
2017-11-15T08:52:26.927Z,6.30
2017-11-15T08:54:54.684Z,6.60
2017-11-15T08:57:22.243Z,6.70
2017-11-15T08:59:49.805Z,6.91
2017-11-15T09:02:17.567Z,6.97
2017-11-15T09:04:45.126Z,7.20
2017-11-15T09:07:12.644Z,7.42
2017-11-15T09:09:40.346Z,8.14
2017-11-15T09:12:07.906Z,11.93
2017-11-15T09:14:36.186Z,15.50
2017-11-15T09:17:03.919Z,17.90
2017-11-15T09:19:31.445Z,19.86
2017-11-15T09:21:58.960Z,19.97
2017-11-15T09:24:26.543Z,20.22
2017-11-15T09:26:54.069Z,20.80
2017-11-15T09:29:21.660Z,21.91
2017-11-15T09:31:49.229Z,23.68
2017-11-15T09:34:16.799Z,23.35
2017-11-15T09:36:44.318Z,23.85
2017-11-15T09:39:12.223Z,24.84
2017-11-15T09:41:39.743Z,25.02
2017-11-15T09:44:07.305Z,23.98
2017-11-15T09:46:34.956Z,23.92
2017-11-15T09:49:02.521Z,25.62
2017-11-15T09:51:30.050Z,26.65
2017-11-15T09:53:58.048Z,26.76
2017-11-15T09:56:25.607Z,27.05
2017-11-15T09:58:53.133Z,28.03
2017-11-15T10:01:20.932Z,26.75
2017-11-15T10:03:48.490Z,26.82
2017-11-15T10:06:16.019Z,27.92
2017-11-15T10:08:43.800Z,26.87
2017-11-15T10:11:11.317Z,26.82
2017-11-15T10:13:38.857Z,26.78
2017-11-15T10:16:06.679Z,26.88
2017-11-15T10:18:34.256Z,28.00
2017-11-15T10:21:01.783Z,28.97
2017-11-15T10:23:29.391Z,28.40
2017-11-15T10:25:56.931Z,28.94
2017-11-15T10:28:24.493Z,28.10
2017-11-15T10:30:52.457Z,29.55
2017-11-15T10:33:20.119Z,28.87
2017-11-15T10:35:47.679Z,29.65
2017-11-15T10:38:15.252Z,29.60
2017-11-15T10:40:42.788Z,31.18
2017-11-15T10:43:10.356Z,32.04
2017-11-15T10:45:38.095Z,32.21
2017-11-15T10:48:08.544Z,32.19
2017-11-15T10:50:36.063Z,31.40
2017-11-15T10:53:03.607Z,32.66
2017-11-15T10:55:31.172Z,33.48
2017-11-15T10:57:58.724Z,31.98
2017-11-15T11:00:32.507Z,31.97
2017-11-15T11:03:00.043Z,29.66
2017-11-15T11:05:27.603Z,30.03
2017-11-15T11:07:55.157Z,28.49
2017-11-15T11:10:22.677Z,30.13
2017-11-15T11:12:50.196Z,30.77
2017-11-15T11:15:17.941Z,28.08
2017-11-15T11:17:45.501Z,29.82
2017-11-15T11:20:13.059Z,28.04
2017-11-15T11:22:40.625Z,29.92
2017-11-15T11:25:08.149Z,30.04
2017-11-15T11:27:35.669Z,29.83
2017-11-15T11:30:03.399Z,29.72
2017-11-15T11:32:30.966Z,28.41
2017-11-15T11:34:58.519Z,28.93
2017-11-15T11:37:26.105Z,29.66
2017-11-15T11:39:53.638Z,28.79
2017-11-15T11:42:21.194Z,29.59
2017-11-15T11:44:48.958Z,30.11
2017-11-15T11:47:16.520Z,30.20
2017-11-15T11:49:44.093Z,29.39
2017-11-15T11:52:11.942Z,29.91
2017-11-15T11:54:39.462Z,30.60
2017-11-15T11:57:06.978Z,32.14
2017-11-15T11:59:34.536Z,31.09
2017-11-15T12:02:02.059Z,31.44
2017-11-15T12:04:29.584Z,32.56
2017-11-15T12:06:57.243Z,30.70
2017-11-15T12:09:24.764Z,30.09
2017-11-15T12:11:52.311Z,29.75
2017-11-15T12:14:19.882Z,30.15
2017-11-15T12:16:47.451Z,24.81
2017-11-15T12:19:14.988Z,19.69
2017-11-15T12:21:42.578Z,17.37
2017-11-15T12:24:10.111Z,15.59
2017-11-15T12:26:37.635Z,14.41
2017-11-15T12:29:05.328Z,13.75
2017-11-15T12:31:32.888Z,13.26
2017-11-15T12:34:00.416Z,13.20
2017-11-15T12:36:28.005Z,12.60
2017-11-15T12:38:55.568Z,12.25
2017-11-15T12:41:23.120Z,12.33
2017-11-15T12:43:50.824Z,11.90
2017-11-15T12:46:18.353Z,11.98
2017-11-15T12:48:45.880Z,11.76
2017-11-15T12:51:13.573Z,11.92
2017-11-15T12:53:41.103Z,11.86
2017-11-15T12:56:08.619Z,11.14
2017-11-15T12:58:36.446Z,10.88
2017-11-15T13:01:04.008Z,10.63
2017-11-15T13:03:31.563Z,11.11
2017-11-15T13:05:59.430Z,10.92
2017-11-15T13:08:26.952Z,11.16
2017-11-15T13:10:54.475Z,10.72
2017-11-15T13:13:22.370Z,10.84
2017-11-15T13:15:49.887Z,10.98
2017-11-15T13:18:17.430Z,10.86
2017-11-15T13:20:46.224Z,10.56
2017-11-15T13:23:13.778Z,11.06
2017-11-15T13:25:41.345Z,10.89
2017-11-15T13:28:08.896Z,11.05
2017-11-15T13:30:36.457Z,11.19
2017-11-15T13:33:04.015Z,10.86
2017-11-15T13:35:31.779Z,11.18
2017-11-15T13:37:59.339Z,11.38
2017-11-15T13:40:26.864Z,11.49
2017-11-15T13:42:54.661Z,12.20
2017-11-15T13:45:22.188Z,12.45
2017-11-15T13:47:49.744Z,12.10
2017-11-15T13:50:17.323Z,11.93
2017-11-15T13:52:44.999Z,11.58
2017-11-15T13:55:12.558Z,11.53
2017-11-15T13:57:40.423Z,10.74
2017-11-15T14:00:07.999Z,10.90
2017-11-15T14:02:35.519Z,10.76
2017-11-15T14:05:03.103Z,11.04
2017-11-15T14:07:30.684Z,10.64
2017-11-15T14:09:58.219Z,10.80
2017-11-15T14:12:26.187Z,10.72
2017-11-15T14:14:53.745Z,10.81
2017-11-15T14:17:21.268Z,10.82
2017-11-15T14:19:48.825Z,10.79
2017-11-15T14:22:16.345Z,10.80
2017-11-15T14:24:43.867Z,10.80
2017-11-15T14:27:11.738Z,10.71
2017-11-15T14:29:39.264Z,10.71
2017-11-15T14:32:06.784Z,10.60
2017-11-15T14:34:34.529Z,10.78
2017-11-15T14:37:02.086Z,10.49
2017-11-15T14:39:30.057Z,10.29
2017-11-15T14:41:57.802Z,10.58
2017-11-15T14:44:25.332Z,10.29
2017-11-15T14:46:52.855Z,10.51
2017-11-15T14:49:20.702Z,10.40
2017-11-15T14:51:48.257Z,10.46
2017-11-15T14:54:15.959Z,10.23
2017-11-15T14:56:43.704Z,10.39
2017-11-15T14:59:11.257Z,10.40
2017-11-15T15:01:38.814Z,10.41
2017-11-15T15:04:07.078Z,10.26
2017-11-15T15:06:34.649Z,10.31
2017-11-15T15:09:02.401Z,10.28
2017-11-15T15:11:30.251Z,10.17
2017-11-15T15:13:57.772Z,10.15
2017-11-15T15:16:25.309Z,10.09
2017-11-15T15:18:52.944Z,10.02
2017-11-15T15:21:20.605Z,9.95
2017-11-15T15:23:48.171Z,9.86
2017-11-15T15:26:15.936Z,9.76
2017-11-15T15:28:43.511Z,9.67
2017-11-15T15:31:11.148Z,9.57
2017-11-15T15:33:38.890Z,9.44
2017-11-15T15:36:06.407Z,9.34
2017-11-15T15:38:34.008Z,9.24
2017-11-15T15:41:01.620Z,9.18
2017-11-15T15:43:29.149Z,9.05
2017-11-15T15:45:56.726Z,8.94
2017-11-15T15:48:24.471Z,8.85
2017-11-15T15:50:52.032Z,8.82
2017-11-15T15:53:19.590Z,8.77
2017-11-15T15:55:47.457Z,8.72
2017-11-15T15:58:15.016Z,8.63
2017-11-15T16:00:42.573Z,8.48
2017-11-15T16:03:10.422Z,8.38
2017-11-15T16:05:37.971Z,8.37
2017-11-15T16:08:05.567Z,8.32
2017-11-15T16:10:33.383Z,8.25
2017-11-15T16:13:00.923Z,8.23
2017-11-15T16:15:28.458Z,8.17
2017-11-15T16:17:56.205Z,8.12
2017-11-15T16:20:23.762Z,8.07
2017-11-15T16:22:51.323Z,7.99
2017-11-15T16:25:19.290Z,7.96
2017-11-15T16:27:46.952Z,7.91
2017-11-15T16:30:14.539Z,7.88
2017-11-15T16:32:42.294Z,7.66
2017-11-15T16:35:09.936Z,7.84
2017-11-15T16:37:37.700Z,7.81
2017-11-15T16:40:05.371Z,7.71
2017-11-15T16:42:32.887Z,7.62
2017-11-15T16:45:00.402Z,7.50
2017-11-15T16:47:28.285Z,7.53
2017-11-15T16:49:56.008Z,7.37
2017-11-15T16:52:23.568Z,7.45
2017-11-15T16:54:51.332Z,7.39
2017-11-15T16:57:18.850Z,7.31
2017-11-15T16:59:46.453Z,7.21
2017-11-15T17:02:14.382Z,7.19
2017-11-15T17:04:42.082Z,7.16
2017-11-15T17:07:09.671Z,7.10
2017-11-15T17:09:37.505Z,7.10
2017-11-15T17:12:05.968Z,7.03
2017-11-15T17:14:33.646Z,7.01
2017-11-15T17:17:01.615Z,6.98
2017-11-15T17:19:29.485Z,6.98
2017-11-15T17:21:57.263Z,6.94
2017-11-15T17:24:25.102Z,6.89
2017-11-15T17:26:54.604Z,6.89
2017-11-15T17:29:22.388Z,6.85
2017-11-15T17:31:50.757Z,6.81
2017-11-15T17:34:19.659Z,6.78
2017-11-15T17:36:47.515Z,6.80
2017-11-15T17:39:17.088Z,6.76
2017-11-15T17:41:44.989Z,6.64
2017-11-15T17:44:12.790Z,6.66
2017-11-15T17:46:40.769Z,6.71
2017-11-15T17:49:08.693Z,6.67
2017-11-15T17:51:36.367Z,6.66
2017-11-15T17:54:04.284Z,6.64
2017-11-15T17:56:32.377Z,6.64
2017-11-15T17:59:00.175Z,6.63
2017-11-15T18:01:28.650Z,6.59
2017-11-15T18:03:56.463Z,6.57
2017-11-15T18:06:24.530Z,6.56
2017-11-15T18:08:53.224Z,6.55
2017-11-15T18:11:20.763Z,6.56
2017-11-15T18:13:48.766Z,6.56
2017-11-15T18:16:16.558Z,6.54
2017-11-15T18:18:44.414Z,6.54
2017-11-15T18:21:13.004Z,6.52
2017-11-15T18:23:41.084Z,6.53
2017-11-15T18:26:08.735Z,6.56
2017-11-15T18:28:36.605Z,6.49
2017-11-15T18:31:04.478Z,6.54
2017-11-15T18:33:32.127Z,6.51
2017-11-15T18:35:59.991Z,6.49
2017-11-15T18:38:27.981Z,6.52
2017-11-15T18:40:55.737Z,6.48
2017-11-15T18:43:24.013Z,6.41
2017-11-15T18:45:51.993Z,6.38
2017-11-15T18:48:19.657Z,6.42
2017-11-15T18:50:47.412Z,6.33
2017-11-15T18:53:15.266Z,6.36
2017-11-15T18:55:42.879Z,6.34
2017-11-15T18:58:10.584Z,6.30
2017-11-15T19:00:38.655Z,6.30
2017-11-15T19:03:06.826Z,6.29
2017-11-15T19:05:34.590Z,6.26
2017-11-15T19:08:02.355Z,6.32
2017-11-15T19:10:30.221Z,6.31
2017-11-15T19:12:58.000Z,6.22
2017-11-15T19:15:26.480Z,6.25
2017-11-15T19:17:54.286Z,6.30
2017-11-15T19:20:21.995Z,6.28
2017-11-15T19:22:50.176Z,6.30
2017-11-15T19:25:17.948Z,6.27
2017-11-15T19:27:46.879Z,6.24
2017-11-15T19:30:14.704Z,6.23
2017-11-15T19:32:42.464Z,6.20
2017-11-15T19:35:10.831Z,6.21
2017-11-15T19:37:38.717Z,6.15
2017-11-15T19:40:06.582Z,6.16
2017-11-15T19:42:34.532Z,6.22
2017-11-15T19:45:03.545Z,6.18
2017-11-15T19:47:31.495Z,6.16
2017-11-15T19:49:59.729Z,6.15
2017-11-15T19:52:29.131Z,6.19
2017-11-15T19:54:57.140Z,6.06
2017-11-15T19:57:25.014Z,6.05
2017-11-15T19:59:58.109Z,6.05
2017-11-15T20:02:25.872Z,6.05
2017-11-15T20:04:54.308Z,6.04
2017-11-15T20:07:22.205Z,6.07
2017-11-15T20:09:50.088Z,6.09
2017-11-15T20:12:19.476Z,6.12
2017-11-15T20:14:47.345Z,6.15
2017-11-15T20:17:15.207Z,6.23
2017-11-15T20:19:43.291Z,6.22
2017-11-15T20:22:11.699Z,6.15
2017-11-15T20:24:39.445Z,6.08
2017-11-15T20:27:08.515Z,6.04
2017-11-15T20:29:36.280Z,5.99
2017-11-15T20:32:04.049Z,5.90
2017-11-15T20:34:32.079Z,5.89
2017-11-15T20:36:59.774Z,5.82
2017-11-15T20:39:27.553Z,5.77
2017-11-15T20:41:55.419Z,5.74
2017-11-15T20:44:23.185Z,5.69
2017-11-15T20:46:50.961Z,5.72
2017-11-15T20:49:19.215Z,5.74
2017-11-15T20:51:47.076Z,5.72
2017-11-15T20:54:14.942Z,5.73
2017-11-15T20:56:43.219Z,5.69
2017-11-15T20:59:11.191Z,5.71
2017-11-15T21:01:38.971Z,5.69
2017-11-15T21:04:06.941Z,5.66
2017-11-15T21:06:34.716Z,5.64
2017-11-15T21:09:02.558Z,5.60
2017-11-15T21:11:30.536Z,5.56
2017-11-15T21:13:58.389Z,5.58
2017-11-15T21:16:26.576Z,5.57
2017-11-15T21:18:54.532Z,5.49
2017-11-15T21:21:22.183Z,5.45
2017-11-15T21:23:50.157Z,5.38
2017-11-15T21:26:18.024Z,5.23
2017-11-15T21:28:46.004Z,5.34
2017-11-15T21:31:13.873Z,5.19
2017-11-15T21:33:42.099Z,5.12
2017-11-15T21:36:09.795Z,4.87
2017-11-15T21:38:37.870Z,4.86
2017-11-15T21:41:05.945Z,4.97
2017-11-15T21:43:33.688Z,4.93
2017-11-15T21:46:01.488Z,4.80
2017-11-15T21:48:29.946Z,4.80
2017-11-15T21:50:57.711Z,4.66
2017-11-15T21:53:25.333Z,4.62
2017-11-15T21:55:53.308Z,4.66
2017-11-15T21:58:21.002Z,4.86
2017-11-15T22:00:48.557Z,4.92
2017-11-15T22:03:16.845Z,4.96
2017-11-15T22:05:44.691Z,4.73
2017-11-15T22:08:12.466Z,4.96
2017-11-15T22:10:40.442Z,4.98
2017-11-15T22:13:08.067Z,4.93
2017-11-15T22:15:35.760Z,4.87
2017-11-15T22:18:03.733Z,4.82
2017-11-15T22:20:31.599Z,4.84
2017-11-15T22:22:59.871Z,4.88
2017-11-15T22:25:28.147Z,4.85
2017-11-15T22:27:55.775Z,4.86
2017-11-15T22:30:23.368Z,4.88
2017-11-15T22:32:51.130Z,4.75
2017-11-15T22:35:18.691Z,4.78
2017-11-15T22:37:46.270Z,4.76
2017-11-15T22:40:14.114Z,4.72
2017-11-15T22:42:41.878Z,4.67
2017-11-15T22:45:09.451Z,4.61
2017-11-15T22:47:37.356Z,4.64
2017-11-15T22:50:04.887Z,4.58
2017-11-15T22:52:32.421Z,4.57
2017-11-15T22:55:00.288Z,4.59
2017-11-15T22:57:27.845Z,4.48
2017-11-15T22:59:55.408Z,4.47
2017-11-15T23:02:22.985Z,4.42
2017-11-15T23:04:50.527Z,4.35
2017-11-15T23:07:18.087Z,4.40
2017-11-15T23:09:45.659Z,4.45
2017-11-15T23:12:13.201Z,4.41
2017-11-15T23:14:40.762Z,4.40
2017-11-15T23:17:08.627Z,4.34
2017-11-15T23:19:36.139Z,4.32
2017-11-15T23:22:03.647Z,4.26
2017-11-15T23:24:31.220Z,4.28
2017-11-15T23:26:58.865Z,4.19
2017-11-15T23:29:26.424Z,4.16
2017-11-15T23:31:53.994Z,4.13
2017-11-15T23:34:21.541Z,4.13
2017-11-15T23:36:49.117Z,3.98
2017-11-15T23:39:16.966Z,4.06
2017-11-15T23:41:44.524Z,4.03
2017-11-15T23:44:12.036Z,3.98
2017-11-15T23:46:39.764Z,3.90
2017-11-15T23:49:07.311Z,3.95
2017-11-15T23:51:34.819Z,3.99
2017-11-15T23:54:02.521Z,4.02
2017-11-15T23:56:30.089Z,4.06
2017-11-15T23:58:57.613Z,4.04
